sensor_id;sensor_type;location;lat;lon;timestamp;pressure;altitude;pressure_sealevel;temperature;humidity
23118;BME280;11728;50.624;6.014;2022-07-06T00:03:24;99232.31;;;14.98;65.00
23118;BME280;11728;50.624;6.014;2022-07-06T00:08:25;99222.78;;;14.90;65.69
23118;BME280;11728;50.624;6.014;2022-07-06T00:13:26;99227.47;;;14.80;65.75
23118;BME280;11728;50.624;6.014;2022-07-06T00:18:27;99226.75;;;14.72;66.19
23118;BME280;11728;50.624;6.014;2022-07-06T00:23:27;99229.69;;;14.60;66.75
23118;BME280;11728;50.624;6.014;2022-07-06T00:28:28;99227.28;;;14.52;67.10
23118;BME280;11728;50.624;6.014;2022-07-06T00:33:29;99219.78;;;14.31;67.59
23118;BME280;11728;50.624;6.014;2022-07-06T00:38:29;99221.25;;;14.04;68.33
23118;BME280;11728;50.624;6.014;2022-07-06T00:43:46;99222.41;;;13.91;69.44
23118;BME280;11728;50.624;6.014;2022-07-06T00:48:47;99218.38;;;13.73;70.09
23118;BME280;11728;50.624;6.014;2022-07-06T00:53:48;99220.53;;;13.54;71.07
23118;BME280;11728;50.624;6.014;2022-07-06T00:58:49;99227.69;;;13.49;70.89
23118;BME280;11728;50.624;6.014;2022-07-06T01:03:50;99223.53;;;13.38;72.14
23118;BME280;11728;50.624;6.014;2022-07-06T01:08:50;99221.97;;;13.26;72.87
23118;BME280;11728;50.624;6.014;2022-07-06T01:13:51;99221.25;;;13.17;73.62
23118;BME280;11728;50.624;6.014;2022-07-06T01:18:52;99219.56;;;13.13;73.73
23118;BME280;11728;50.624;6.014;2022-07-06T01:23:53;99216.13;;;13.08;73.69
23118;BME280;11728;50.624;6.014;2022-07-06T01:28:53;99223.38;;;12.97;74.59
23118;BME280;11728;50.624;6.014;2022-07-06T01:33:55;99217.38;;;12.88;75.33
23118;BME280;11728;50.624;6.014;2022-07-06T01:38:56;99214.72;;;12.86;75.55
23118;BME280;11728;50.624;6.014;2022-07-06T01:43:58;99220.06;;;12.83;75.69
23118;BME280;11728;50.624;6.014;2022-07-06T01:48:59;99216.53;;;12.81;75.99
23118;BME280;11728;50.624;6.014;2022-07-06T01:54:01;99226.47;;;12.69;76.36
23118;BME280;11728;50.624;6.014;2022-07-06T01:59:02;99218.91;;;12.46;76.78
23118;BME280;11728;50.624;6.014;2022-07-06T02:04:03;99221.72;;;12.36;77.39
23118;BME280;11728;50.624;6.014;2022-07-06T02:09:04;99228.06;;;12.25;78.04
23118;BME280;11728;50.624;6.014;2022-07-06T02:14:07;99223.84;;;12.12;78.54
23118;BME280;11728;50.624;6.014;2022-07-06T02:19:08;99226.72;;;11.94;79.47
23118;BME280;11728;50.624;6.014;2022-07-06T02:24:08;99223.25;;;11.87;79.60
23118;BME280;11728;50.624;6.014;2022-07-06T02:29:09;99218.06;;;11.83;79.77
23118;BME280;11728;50.624;6.014;2022-07-06T02:34:10;99218.06;;;11.83;79.80
23118;BME280;11728;50.624;6.014;2022-07-06T02:39:12;99219.00;;;11.77;79.68
23118;BME280;11728;50.624;6.014;2022-07-06T02:44:14;99214.75;;;11.66;80.33
23118;BME280;11728;50.624;6.014;2022-07-06T02:49:15;99214.84;;;11.57;79.85
23118;BME280;11728;50.624;6.014;2022-07-06T02:54:16;99218.44;;;11.50;80.35
23118;BME280;11728;50.624;6.014;2022-07-06T02:59:16;99218.53;;;11.41;80.67
23118;BME280;11728;50.624;6.014;2022-07-06T03:04:17;99223.03;;;11.35;81.32
23118;BME280;11728;50.624;6.014;2022-07-06T03:09:19;99222.22;;;11.27;81.85
23118;BME280;11728;50.624;6.014;2022-07-06T03:14:20;99230.19;;;11.21;81.97
23118;BME280;11728;50.624;6.014;2022-07-06T03:19:23;99236.50;;;11.08;82.47
23118;BME280;11728;50.624;6.014;2022-07-06T03:24:24;99238.28;;;11.07;82.53
23118;BME280;11728;50.624;6.014;2022-07-06T03:29:24;99239.19;;;11.06;82.37
23118;BME280;11728;50.624;6.014;2022-07-06T03:34:25;99234.78;;;11.05;82.34
23118;BME280;11728;50.624;6.014;2022-07-06T03:39:26;99229.63;;;10.90;82.87
23118;BME280;11728;50.624;6.014;2022-07-06T03:44:29;99232.34;;;10.81;83.09
23118;BME280;11728;50.624;6.014;2022-07-06T03:49:29;99236.72;;;10.85;83.11
23118;BME280;11728;50.624;6.014;2022-07-06T03:54:33;99241.97;;;10.88;83.30
23118;BME280;11728;50.624;6.014;2022-07-06T03:59:34;99245.53;;;10.84;83.30
23118;BME280;11728;50.624;6.014;2022-07-06T04:04:34;99247.31;;;10.82;83.50
23118;BME280;11728;50.624;6.014;2022-07-06T04:09:35;99253.38;;;10.92;83.04
23118;BME280;11728;50.624;6.014;2022-07-06T04:14:36;99256.03;;;10.93;83.26
23118;BME280;11728;50.624;6.014;2022-07-06T04:19:38;99247.22;;;10.96;83.42
23118;BME280;11728;50.624;6.014;2022-07-06T04:24:39;99260.28;;;11.08;82.68
23118;BME280;11728;50.624;6.014;2022-07-06T04:29:40;99256.72;;;11.16;81.99
23118;BME280;11728;50.624;6.014;2022-07-06T04:34:40;99262.81;;;11.21;81.77
23118;BME280;11728;50.624;6.014;2022-07-06T04:39:41;99265.41;;;11.27;81.52
23118;BME280;11728;50.624;6.014;2022-07-06T04:44:42;99268.75;;;11.44;81.04
23118;BME280;11728;50.624;6.014;2022-07-06T04:49:43;99272.19;;;11.56;80.98
23118;BME280;11728;50.624;6.014;2022-07-06T04:54:43;99270.22;;;11.75;80.37
23118;BME280;11728;50.624;6.014;2022-07-06T04:59:44;99269.09;;;11.91;80.15
23118;BME280;11728;50.624;6.014;2022-07-06T05:04:45;99262.66;;;12.13;79.79
23118;BME280;11728;50.624;6.014;2022-07-06T05:09:45;99272.97;;;12.33;79.19
23118;BME280;11728;50.624;6.014;2022-07-06T05:14:47;99266.56;;;12.48;78.97
23118;BME280;11728;50.624;6.014;2022-07-06T05:19:48;99265.22;;;12.76;78.98
23118;BME280;11728;50.624;6.014;2022-07-06T05:24:49;99266.50;;;13.06;78.07
23118;BME280;11728;50.624;6.014;2022-07-06T05:29:50;99268.81;;;13.26;78.21
23118;BME280;11728;50.624;6.014;2022-07-06T05:34:51;99268.44;;;13.47;77.51
23118;BME280;11728;50.624;6.014;2022-07-06T05:39:54;99278.16;;;13.91;77.39
23118;BME280;11728;50.624;6.014;2022-07-06T05:44:55;99271.78;;;14.42;75.74
23118;BME280;11728;50.624;6.014;2022-07-06T05:49:56;99281.22;;;14.93;73.92
23118;BME280;11728;50.624;6.014;2022-07-06T05:55:13;99270.75;;;15.22;72.75
23118;BME280;11728;50.624;6.014;2022-07-06T06:00:16;99278.25;;;15.73;70.92
23118;BME280;11728;50.624;6.014;2022-07-06T06:05:20;99273.81;;;16.04;69.51
23118;BME280;11728;50.624;6.014;2022-07-06T06:10:23;99270.66;;;16.20;68.87
23118;BME280;11728;50.624;6.014;2022-07-06T06:15:27;99264.66;;;16.71;67.79
23118;BME280;11728;50.624;6.014;2022-07-06T06:20:28;99266.13;;;17.34;65.50
23118;BME280;11728;50.624;6.014;2022-07-06T06:25:33;99274.16;;;17.83;63.05
23118;BME280;11728;50.624;6.014;2022-07-06T06:30:35;99273.94;;;18.13;62.01
23118;BME280;11728;50.624;6.014;2022-07-06T06:35:38;99266.09;;;18.54;60.12
23118;BME280;11728;50.624;6.014;2022-07-06T06:40:39;99275.19;;;18.95;58.46
23118;BME280;11728;50.624;6.014;2022-07-06T06:45:39;99278.03;;;19.13;57.41
23118;BME280;11728;50.624;6.014;2022-07-06T06:50:41;99281.34;;;18.75;58.49
23118;BME280;11728;50.624;6.014;2022-07-06T06:55:42;99279.59;;;18.74;58.00
23118;BME280;11728;50.624;6.014;2022-07-06T07:00:42;99278.63;;;18.31;59.02
23118;BME280;11728;50.624;6.014;2022-07-06T07:05:43;99277.75;;;18.53;59.06
23118;BME280;11728;50.624;6.014;2022-07-06T07:10:44;99281.56;;;18.69;59.17
23118;BME280;11728;50.624;6.014;2022-07-06T07:15:44;99287.69;;;18.94;57.58
23118;BME280;11728;50.624;6.014;2022-07-06T07:20:45;99273.38;;;18.95;57.80
23118;BME280;11728;50.624;6.014;2022-07-06T07:25:46;99278.38;;;19.04;57.44
23118;BME280;11728;50.624;6.014;2022-07-06T07:30:46;99286.88;;;19.15;56.79
23118;BME280;11728;50.624;6.014;2022-07-06T07:35:47;99282.97;;;19.65;55.76
23118;BME280;11728;50.624;6.014;2022-07-06T07:40:47;99282.94;;;20.24;54.45
23118;BME280;11728;50.624;6.014;2022-07-06T07:45:48;99286.72;;;20.77;53.14
23118;BME280;11728;50.624;6.014;2022-07-06T07:50:49;99284.72;;;20.82;51.79
23118;BME280;11728;50.624;6.014;2022-07-06T07:55:50;99286.59;;;20.80;51.15
23118;BME280;11728;50.624;6.014;2022-07-06T08:00:50;99280.78;;;20.89;50.71
23118;BME280;11728;50.624;6.014;2022-07-06T08:05:51;99280.88;;;21.23;49.69
23118;BME280;11728;50.624;6.014;2022-07-06T08:10:51;99275.13;;;21.30;47.88
23118;BME280;11728;50.624;6.014;2022-07-06T08:15:52;99279.81;;;21.44;46.85
23118;BME280;11728;50.624;6.014;2022-07-06T08:20:53;99278.78;;;21.46;46.06
23118;BME280;11728;50.624;6.014;2022-07-06T08:25:56;99273.84;;;21.89;44.89
23118;BME280;11728;50.624;6.014;2022-07-06T08:30:57;99281.03;;;22.55;44.39
23118;BME280;11728;50.624;6.014;2022-07-06T08:35:58;99270.78;;;23.69;42.34
23118;BME280;11728;50.624;6.014;2022-07-06T08:40:59;99264.84;;;25.19;40.57
23118;BME280;11728;50.624;6.014;2022-07-06T08:46:00;99265.94;;;26.33;37.85
23118;BME280;11728;50.624;6.014;2022-07-06T08:51:01;99279.59;;;26.93;37.67
23118;BME280;11728;50.624;6.014;2022-07-06T08:56:02;99274.06;;;27.90;35.53
23118;BME280;11728;50.624;6.014;2022-07-06T09:01:02;99278.94;;;28.42;34.13
23118;BME280;11728;50.624;6.014;2022-07-06T09:06:04;99279.50;;;27.90;32.80
23118;BME280;11728;50.624;6.014;2022-07-06T09:11:06;99285.88;;;26.32;34.58
23118;BME280;11728;50.624;6.014;2022-07-06T09:16:11;99272.63;;;25.37;34.45
23118;BME280;11728;50.624;6.014;2022-07-06T09:21:25;99273.41;;;24.57;35.88
23118;BME280;11728;50.624;6.014;2022-07-06T09:26:26;99275.03;;;24.46;37.00
23118;BME280;11728;50.624;6.014;2022-07-06T09:31:27;99270.94;;;24.25;38.01
23118;BME280;11728;50.624;6.014;2022-07-06T09:36:47;99266.53;;;24.93;36.90
23118;BME280;11728;50.624;6.014;2022-07-06T09:41:52;99260.31;;;26.60;34.91
23118;BME280;11728;50.624;6.014;2022-07-06T09:46:58;99268.56;;;27.79;33.55
23118;BME280;11728;50.624;6.014;2022-07-06T09:52:02;99268.41;;;28.27;32.61
23118;BME280;11728;50.624;6.014;2022-07-06T09:57:03;99261.09;;;26.62;32.96
23118;BME280;11728;50.624;6.014;2022-07-06T10:02:05;99260.72;;;25.13;33.93
23118;BME280;11728;50.624;6.014;2022-07-06T10:07:08;99266.06;;;24.45;36.25
23118;BME280;11728;50.624;6.014;2022-07-06T10:12:12;99268.66;;;24.61;36.18
23118;BME280;11728;50.624;6.014;2022-07-06T10:17:14;99255.47;;;26.53;34.25
23118;BME280;11728;50.624;6.014;2022-07-06T10:22:15;99261.09;;;27.46;33.88
23118;BME280;11728;50.624;6.014;2022-07-06T10:27:18;99260.38;;;28.02;32.58
23118;BME280;11728;50.624;6.014;2022-07-06T10:32:19;99253.56;;;27.62;32.91
23118;BME280;11728;50.624;6.014;2022-07-06T10:37:25;99261.88;;;28.40;31.64
23118;BME280;11728;50.624;6.014;2022-07-06T10:42:40;99246.69;;;29.14;30.37
23118;BME280;11728;50.624;6.014;2022-07-06T10:47:41;99255.00;;;28.80;30.21
23118;BME280;11728;50.624;6.014;2022-07-06T10:52:58;99259.66;;;28.45;30.06
23118;BME280;11728;50.624;6.014;2022-07-06T10:57:59;99254.84;;;28.03;31.11
23118;BME280;11728;50.624;6.014;2022-07-06T11:13:56;99261.06;;;28.16;31.69
23118;BME280;11728;50.624;6.014;2022-07-06T11:24:00;99265.50;;;27.60;32.27
23118;BME280;11728;50.624;6.014;2022-07-06T11:29:04;99263.28;;;28.68;31.43
23118;BME280;11728;50.624;6.014;2022-07-06T11:34:08;99254.25;;;29.22;29.46
23118;BME280;11728;50.624;6.014;2022-07-06T11:39:09;99259.41;;;28.37;30.15
23118;BME280;11728;50.624;6.014;2022-07-06T11:44:09;99254.16;;;27.19;30.81
23118;BME280;11728;50.624;6.014;2022-07-06T11:49:10;99262.25;;;26.83;31.96
23118;BME280;11728;50.624;6.014;2022-07-06T11:54:14;99255.56;;;26.51;31.98
23118;BME280;11728;50.624;6.014;2022-07-06T11:59:16;99256.03;;;26.07;32.39
23118;BME280;11728;50.624;6.014;2022-07-06T12:04:17;99254.00;;;26.10;33.24
23118;BME280;11728;50.624;6.014;2022-07-06T12:09:17;99251.22;;;26.49;33.02
23118;BME280;11728;50.624;6.014;2022-07-06T12:14:20;99245.25;;;27.17;32.26
23118;BME280;11728;50.624;6.014;2022-07-06T12:19:22;99243.22;;;27.44;33.02
23118;BME280;11728;50.624;6.014;2022-07-06T12:24:27;99234.94;;;27.45;31.06
23118;BME280;11728;50.624;6.014;2022-07-06T12:29:28;99230.16;;;27.25;32.55
23118;BME280;11728;50.624;6.014;2022-07-06T12:34:29;99224.56;;;27.39;31.82
23118;BME280;11728;50.624;6.014;2022-07-06T12:39:43;99229.91;;;27.52;31.06
23118;BME280;11728;50.624;6.014;2022-07-06T12:44:49;99216.41;;;27.16;31.04
23118;BME280;11728;50.624;6.014;2022-07-06T12:50:07;99208.53;;;27.71;31.39
23118;BME280;11728;50.624;6.014;2022-07-06T12:55:09;99201.56;;;28.24;30.05
23118;BME280;11728;50.624;6.014;2022-07-06T13:00:13;99200.72;;;28.01;30.38
23118;BME280;11728;50.624;6.014;2022-07-06T13:05:16;99195.66;;;27.85;30.91
23118;BME280;11728;50.624;6.014;2022-07-06T13:10:17;99188.38;;;27.97;30.87
23118;BME280;11728;50.624;6.014;2022-07-06T13:15:17;99200.88;;;28.10;30.56
23118;BME280;11728;50.624;6.014;2022-07-06T13:20:18;99190.88;;;28.10;30.24
23118;BME280;11728;50.624;6.014;2022-07-06T13:25:19;99196.28;;;28.45;30.04
23118;BME280;11728;50.624;6.014;2022-07-06T13:30:20;99195.56;;;27.98;30.45
23118;BME280;11728;50.624;6.014;2022-07-06T13:35:21;99185.81;;;27.61;30.51
23118;BME280;11728;50.624;6.014;2022-07-06T13:40:22;99184.06;;;27.60;31.54
23118;BME280;11728;50.624;6.014;2022-07-06T13:45:22;99172.25;;;27.72;31.19
23118;BME280;11728;50.624;6.014;2022-07-06T13:50:23;99175.56;;;27.41;31.66
23118;BME280;11728;50.624;6.014;2022-07-06T13:55:25;99174.16;;;27.01;31.59
23118;BME280;11728;50.624;6.014;2022-07-06T14:00:26;99166.00;;;26.53;32.27
23118;BME280;11728;50.624;6.014;2022-07-06T14:05:28;99160.59;;;26.53;32.65
23118;BME280;11728;50.624;6.014;2022-07-06T14:10:29;99160.72;;;26.87;32.30
23118;BME280;11728;50.624;6.014;2022-07-06T14:15:30;99166.06;;;27.12;32.22
23118;BME280;11728;50.624;6.014;2022-07-06T14:20:31;99167.00;;;26.40;32.94
23118;BME280;11728;50.624;6.014;2022-07-06T14:25:32;99166.03;;;26.41;31.70
23118;BME280;11728;50.624;6.014;2022-07-06T14:30:35;99163.31;;;26.28;32.44
23118;BME280;11728;50.624;6.014;2022-07-06T14:35:45;99153.63;;;26.61;32.58
23118;BME280;11728;50.624;6.014;2022-07-06T14:40:48;99148.38;;;26.71;32.49
23118;BME280;11728;50.624;6.014;2022-07-06T14:45:49;99136.06;;;26.67;32.75
23118;BME280;11728;50.624;6.014;2022-07-06T14:50:50;99144.66;;;26.48;32.67
23118;BME280;11728;50.624;6.014;2022-07-06T14:55:51;99137.38;;;26.37;32.49
23118;BME280;11728;50.624;6.014;2022-07-06T15:00:51;99143.94;;;25.97;33.58
23118;BME280;11728;50.624;6.014;2022-07-06T15:05:52;99133.16;;;25.58;34.64
23118;BME280;11728;50.624;6.014;2022-07-06T15:10:52;99122.00;;;25.63;34.59
23118;BME280;11728;50.624;6.014;2022-07-06T15:15:53;99127.19;;;25.53;34.25
23118;BME280;11728;50.624;6.014;2022-07-06T15:20:54;99116.72;;;25.10;35.23
23118;BME280;11728;50.624;6.014;2022-07-06T15:25:54;99110.88;;;24.63;36.48
23118;BME280;11728;50.624;6.014;2022-07-06T15:30:55;99103.84;;;24.87;36.26
23118;BME280;11728;50.624;6.014;2022-07-06T15:35:56;99111.09;;;25.25;36.06
23118;BME280;11728;50.624;6.014;2022-07-06T15:40:57;99091.75;;;25.19;34.99
23118;BME280;11728;50.624;6.014;2022-07-06T15:46:03;99080.81;;;25.20;36.42
23118;BME280;11728;50.624;6.014;2022-07-06T15:51:04;99084.34;;;25.47;35.70
23118;BME280;11728;50.624;6.014;2022-07-06T15:56:04;99073.81;;;25.30;36.46
23118;BME280;11728;50.624;6.014;2022-07-06T16:01:07;99070.00;;;25.20;36.58
23118;BME280;11728;50.624;6.014;2022-07-06T16:06:08;99062.50;;;25.11;37.00
23118;BME280;11728;50.624;6.014;2022-07-06T16:11:09;99062.78;;;24.94;36.40
23118;BME280;11728;50.624;6.014;2022-07-06T16:16:10;99063.19;;;24.88;37.28
23118;BME280;11728;50.624;6.014;2022-07-06T16:21:11;99055.22;;;24.99;37.01
23118;BME280;11728;50.624;6.014;2022-07-06T16:26:12;99041.06;;;24.70;37.49
23118;BME280;11728;50.624;6.014;2022-07-06T16:31:12;99052.13;;;24.53;37.45
23118;BME280;11728;50.624;6.014;2022-07-06T16:36:13;99045.41;;;24.46;38.25
23118;BME280;11728;50.624;6.014;2022-07-06T16:41:15;99036.91;;;24.38;38.44
23118;BME280;11728;50.624;6.014;2022-07-06T16:46:16;99046.50;;;24.29;38.25
23118;BME280;11728;50.624;6.014;2022-07-06T16:51:17;99041.28;;;24.26;38.71
23118;BME280;11728;50.624;6.014;2022-07-06T16:56:17;99031.50;;;24.38;38.97
23118;BME280;11728;50.624;6.014;2022-07-06T17:01:18;99027.19;;;24.35;38.99
23118;BME280;11728;50.624;6.014;2022-07-06T17:06:18;99037.81;;;23.84;39.61
23118;BME280;11728;50.624;6.014;2022-07-06T17:11:20;99028.63;;;23.59;40.32
23118;BME280;11728;50.624;6.014;2022-07-06T17:16:21;99028.94;;;23.54;40.44
23118;BME280;11728;50.624;6.014;2022-07-06T17:21:21;99031.03;;;23.49;40.60
23118;BME280;11728;50.624;6.014;2022-07-06T17:26:23;99034.66;;;23.34;41.18
23118;BME280;11728;50.624;6.014;2022-07-06T17:31:23;99031.28;;;23.17;41.65
23118;BME280;11728;50.624;6.014;2022-07-06T17:36:24;99036.00;;;23.14;41.80
23118;BME280;11728;50.624;6.014;2022-07-06T17:41:26;99032.16;;;23.18;42.00
23118;BME280;11728;50.624;6.014;2022-07-06T17:46:26;99028.13;;;23.25;42.18
23118;BME280;11728;50.624;6.014;2022-07-06T17:51:27;99014.53;;;22.97;42.50
23118;BME280;11728;50.624;6.014;2022-07-06T17:56:27;99011.75;;;22.84;42.74
23118;BME280;11728;50.624;6.014;2022-07-06T18:01:28;99010.56;;;22.74;43.14
23118;BME280;11728;50.624;6.014;2022-07-06T18:06:29;99002.94;;;22.67;43.30
23118;BME280;11728;50.624;6.014;2022-07-06T18:11:29;99001.97;;;22.68;43.61
23118;BME280;11728;50.624;6.014;2022-07-06T18:16:30;98991.13;;;22.69;43.53
23118;BME280;11728;50.624;6.014;2022-07-06T18:21:31;98997.94;;;22.75;43.76
23118;BME280;11728;50.624;6.014;2022-07-06T18:26:31;98992.75;;;22.72;43.45
23118;BME280;11728;50.624;6.014;2022-07-06T18:31:32;99004.97;;;22.63;44.01
23118;BME280;11728;50.624;6.014;2022-07-06T18:36:32;98994.66;;;22.70;44.08
23118;BME280;11728;50.624;6.014;2022-07-06T18:41:35;98994.72;;;22.54;44.74
23118;BME280;11728;50.624;6.014;2022-07-06T18:46:35;99005.19;;;22.30;45.29
23118;BME280;11728;50.624;6.014;2022-07-06T18:51:36;99008.13;;;22.10;45.75
23118;BME280;11728;50.624;6.014;2022-07-06T18:56:38;99009.50;;;22.01;45.95
23118;BME280;11728;50.624;6.014;2022-07-06T19:01:38;98995.09;;;22.02;46.22
23118;BME280;11728;50.624;6.014;2022-07-06T19:06:39;98987.28;;;21.98;46.29
23118;BME280;11728;50.624;6.014;2022-07-06T19:11:39;98988.16;;;21.83;46.84
23118;BME280;11728;50.624;6.014;2022-07-06T19:16:40;98985.22;;;21.72;47.32
23118;BME280;11728;50.624;6.014;2022-07-06T19:21:40;98981.28;;;21.62;47.58
23118;BME280;11728;50.624;6.014;2022-07-06T19:26:41;98969.56;;;21.48;47.98
23118;BME280;11728;50.624;6.014;2022-07-06T19:31:42;98970.22;;;21.36;48.46
23118;BME280;11728;50.624;6.014;2022-07-06T19:36:43;98975.59;;;21.36;49.50
23118;BME280;11728;50.624;6.014;2022-07-06T19:41:44;98977.81;;;21.28;51.08
23118;BME280;11728;50.624;6.014;2022-07-06T19:46:45;98977.34;;;21.20;50.76
23118;BME280;11728;50.624;6.014;2022-07-06T19:51:46;98977.41;;;21.03;50.52
23118;BME280;11728;50.624;6.014;2022-07-06T19:56:47;98984.63;;;20.86;51.18
23118;BME280;11728;50.624;6.014;2022-07-06T20:01:48;98977.59;;;20.66;51.71
23118;BME280;11728;50.624;6.014;2022-07-06T20:06:49;98994.22;;;20.39;52.37
23118;BME280;11728;50.624;6.014;2022-07-06T20:11:49;98989.94;;;20.18;53.06
23118;BME280;11728;50.624;6.014;2022-07-06T20:16:50;98991.13;;;19.94;53.93
23118;BME280;11728;50.624;6.014;2022-07-06T20:21:53;98991.34;;;19.71;54.77
23118;BME280;11728;50.624;6.014;2022-07-06T20:26:54;98992.56;;;19.46;55.49
23118;BME280;11728;50.624;6.014;2022-07-06T20:31:54;98984.31;;;19.32;56.62
23118;BME280;11728;50.624;6.014;2022-07-06T20:36:55;99002.25;;;19.30;56.60
23118;BME280;11728;50.624;6.014;2022-07-06T20:41:56;98996.34;;;19.42;56.64
23118;BME280;11728;50.624;6.014;2022-07-06T20:46:56;99000.19;;;19.55;55.92
23118;BME280;11728;50.624;6.014;2022-07-06T20:51:57;99008.56;;;19.66;55.90
23118;BME280;11728;50.624;6.014;2022-07-06T20:56:57;98996.38;;;19.60;56.16
23118;BME280;11728;50.624;6.014;2022-07-06T21:01:59;98999.81;;;19.44;57.13
23118;BME280;11728;50.624;6.014;2022-07-06T21:07:00;98996.03;;;19.30;57.65
23118;BME280;11728;50.624;6.014;2022-07-06T21:12:00;98992.13;;;19.18;58.25
23118;BME280;11728;50.624;6.014;2022-07-06T21:17:01;98978.31;;;19.07;58.07
23118;BME280;11728;50.624;6.014;2022-07-06T21:22:02;98980.19;;;18.85;59.04
23118;BME280;11728;50.624;6.014;2022-07-06T21:27:02;98983.50;;;18.72;59.84
23118;BME280;11728;50.624;6.014;2022-07-06T21:32:03;98980.34;;;18.62;60.38
23118;BME280;11728;50.624;6.014;2022-07-06T21:37:04;98980.50;;;18.59;60.36
23118;BME280;11728;50.624;6.014;2022-07-06T21:42:05;98977.63;;;18.64;60.43
23118;BME280;11728;50.624;6.014;2022-07-06T21:47:05;98976.41;;;18.71;60.58
23118;BME280;11728;50.624;6.014;2022-07-06T21:52:06;98976.63;;;18.66;60.42
23118;BME280;11728;50.624;6.014;2022-07-06T21:57:07;98968.97;;;18.57;61.13
23118;BME280;11728;50.624;6.014;2022-07-06T22:02:08;98972.75;;;18.53;61.48
23118;BME280;11728;50.624;6.014;2022-07-06T22:07:09;98984.50;;;18.50;61.88
23118;BME280;11728;50.624;6.014;2022-07-06T22:12:10;98968.44;;;18.50;62.12
23118;BME280;11728;50.624;6.014;2022-07-06T22:17:11;98977.28;;;18.52;62.13
23118;BME280;11728;50.624;6.014;2022-07-06T22:22:11;98978.09;;;18.53;62.17
23118;BME280;11728;50.624;6.014;2022-07-06T22:27:12;98967.25;;;18.56;62.41
23118;BME280;11728;50.624;6.014;2022-07-06T22:32:13;98956.63;;;18.55;62.30
23118;BME280;11728;50.624;6.014;2022-07-06T22:37:14;98954.78;;;18.55;62.55
23118;BME280;11728;50.624;6.014;2022-07-06T22:42:14;98949.44;;;18.55;62.43
23118;BME280;11728;50.624;6.014;2022-07-06T22:47:15;98941.56;;;18.52;62.81
23118;BME280;11728;50.624;6.014;2022-07-06T22:52:16;98938.91;;;18.52;62.97
23118;BME280;11728;50.624;6.014;2022-07-06T22:57:16;98947.66;;;18.56;62.70
23118;BME280;11728;50.624;6.014;2022-07-06T23:02:17;98949.19;;;18.61;63.18
23118;BME280;11728;50.624;6.014;2022-07-06T23:07:18;98949.31;;;18.58;63.68
23118;BME280;11728;50.624;6.014;2022-07-06T23:12:18;98937.97;;;18.53;63.43
23118;BME280;11728;50.624;6.014;2022-07-06T23:17:19;98933.53;;;18.52;63.56
23118;BME280;11728;50.624;6.014;2022-07-06T23:22:20;98941.44;;;18.36;63.80
23118;BME280;11728;50.624;6.014;2022-07-06T23:27:20;98930.19;;;18.28;64.43
23118;BME280;11728;50.624;6.014;2022-07-06T23:32:21;98929.25;;;18.29;64.44
23118;BME280;11728;50.624;6.014;2022-07-06T23:37:21;98918.47;;;18.30;64.56
23118;BME280;11728;50.624;6.014;2022-07-06T23:42:23;98923.25;;;18.24;64.96
23118;BME280;11728;50.624;6.014;2022-07-06T23:47:24;98926.06;;;18.19;65.08
23118;BME280;11728;50.624;6.014;2022-07-06T23:52:25;98923.38;;;18.21;65.48
23118;BME280;11728;50.624;6.014;2022-07-06T23:57:25;98918.75;;;18.24;65.36
